createdAt,value
2022-11-09T00:00:50.416Z,100403.75
2022-11-09T00:03:17.348Z,100396.63
2022-11-09T00:05:53.885Z,100403.94
2022-11-09T00:08:20.335Z,100404.94
2022-11-09T00:10:46.801Z,100403.25
2022-11-09T00:13:13.260Z,100395.25
2022-11-09T00:15:42.660Z,100394.56
2022-11-09T00:18:09.158Z,100391.84
2022-11-09T00:20:35.617Z,100391.00
2022-11-09T00:23:02.093Z,100399.31
2022-11-09T00:25:31.364Z,100397.44
2022-11-09T00:27:57.837Z,100401.88
2022-11-09T00:30:26.810Z,100391.84
2022-11-09T00:32:53.336Z,100386.44
2022-11-09T00:35:19.803Z,100391.34
2022-11-09T00:37:46.395Z,100405.06
2022-11-09T00:40:13.294Z,100385.38
2022-11-09T00:42:39.837Z,100394.38
2022-11-09T00:45:06.861Z,100397.94
2022-11-09T00:47:33.429Z,100392.34
2022-11-09T00:49:59.945Z,100398.47
2022-11-09T00:52:26.425Z,100393.72
2022-11-09T00:54:53.525Z,100396.28
2022-11-09T00:57:20.039Z,100395.25
2022-11-09T00:59:46.639Z,100402.06
2022-11-09T01:02:13.137Z,100400.19
2022-11-09T01:04:42.735Z,100396.47
2022-11-09T01:07:09.289Z,100403.94
2022-11-09T01:09:37.600Z,100396.78
2022-11-09T01:12:04.130Z,100397.81
2022-11-09T01:14:35.416Z,100396.78
2022-11-09T01:17:03.388Z,100396.28
2022-11-09T01:19:29.925Z,100403.06
2022-11-09T01:21:56.649Z,100412.22
2022-11-09T01:24:24.765Z,100413.38
2022-11-09T01:26:51.250Z,100411.16
2022-11-09T01:29:20.685Z,100408.63
2022-11-09T01:31:48.482Z,100411.50
2022-11-09T01:34:17.660Z,100408.25
2022-11-09T01:36:44.316Z,100411.97
2022-11-09T01:39:10.921Z,100418.44
2022-11-09T01:41:38.123Z,100412.16
2022-11-09T01:44:20.497Z,100416.19
2022-11-09T01:47:07.912Z,100417.22
2022-11-09T01:49:54.598Z,100412.63
2022-11-09T01:52:35.660Z,100412.78
2022-11-09T01:55:08.998Z,100413.13
2022-11-09T01:57:47.675Z,100414.47
2022-11-09T02:00:16.745Z,100414.78
2022-11-09T02:02:51.082Z,100410.38
2022-11-09T02:05:23.744Z,100403.25
2022-11-09T02:07:52.754Z,100405.09
2022-11-09T02:10:33.857Z,100403.72
2022-11-09T02:13:02.272Z,100404.88
2022-11-09T02:15:40.166Z,100390.63
2022-11-09T02:18:10.944Z,100396.03
2022-11-09T02:20:53.375Z,100411.09
2022-11-09T02:23:23.188Z,100413.13
2022-11-09T02:25:54.743Z,100406.00
2022-11-09T02:28:21.896Z,100410.56
2022-11-09T02:30:53.107Z,100416.84
2022-11-09T02:33:20.078Z,100418.72
2022-11-09T02:35:47.946Z,100416.16
2022-11-09T02:38:15.374Z,100409.19
2022-11-09T02:40:46.812Z,100427.34
2022-11-09T02:43:15.573Z,100418.34
2022-11-09T02:45:48.382Z,100417.50
2022-11-09T02:48:15.354Z,100412.22
2022-11-09T02:50:42.032Z,100426.47
2022-11-09T02:53:08.953Z,100426.47
2022-11-09T02:55:43.056Z,100429.88
2022-11-09T02:58:09.628Z,100420.72
2022-11-09T03:00:36.972Z,100416.00
2022-11-09T03:03:04.183Z,100412.28
2022-11-09T03:05:31.030Z,100418.22
2022-11-09T03:08:02.274Z,100407.22
2022-11-09T03:10:31.349Z,100411.47
2022-11-09T03:12:57.825Z,100402.16
2022-11-09T03:15:25.301Z,100395.88
2022-11-09T03:17:51.769Z,100397.59
2022-11-09T03:20:19.881Z,100401.00
2022-11-09T03:22:48.375Z,100409.84
2022-11-09T03:25:19.374Z,100417.81
2022-11-09T03:27:45.892Z,100426.50
2022-11-09T03:30:13.083Z,100429.03
2022-11-09T03:32:40.233Z,100451.44
2022-11-09T03:35:12.083Z,100456.53
2022-11-09T03:37:39.038Z,100453.13
2022-11-09T03:40:06.353Z,100454.16
2022-11-09T03:42:32.889Z,100460.59
2022-11-09T03:45:03.841Z,100460.75
2022-11-09T03:47:30.341Z,100460.75
2022-11-09T03:49:57.045Z,100472.63
2022-11-09T03:52:23.613Z,100474.31
2022-11-09T03:54:50.482Z,100472.63
2022-11-09T03:57:16.967Z,100473.47
2022-11-09T03:59:43.433Z,100472.63
2022-11-09T04:02:09.978Z,100487.88
2022-11-09T04:04:40.452Z,100478.91
2022-11-09T04:07:07.002Z,100484.31
2022-11-09T04:09:33.471Z,100476.34
2022-11-09T04:11:59.972Z,100480.06
2022-11-09T04:14:28.273Z,100488.38
2022-11-09T04:16:54.754Z,100483.09
2022-11-09T04:19:21.468Z,100489.38
2022-11-09T04:21:48.266Z,100486.81
2022-11-09T04:24:19.126Z,100488.81
2022-11-09T04:26:47.312Z,100488.81
2022-11-09T04:29:13.998Z,100484.41
2022-11-09T04:31:40.494Z,100494.41
2022-11-09T04:34:07.077Z,100502.38
2022-11-09T04:36:33.811Z,100507.81
2022-11-09T04:39:00.388Z,100504.25
2022-11-09T04:41:27.863Z,100506.97
2022-11-09T04:43:54.464Z,100515.25
2022-11-09T04:46:21.051Z,100519.28
2022-11-09T04:48:47.522Z,100522.50
2022-11-09T04:51:14.300Z,100520.94
2022-11-09T04:53:40.819Z,100516.69
2022-11-09T04:56:08.043Z,100522.28
2022-11-09T04:58:34.954Z,100514.44
2022-11-09T05:01:13.503Z,100521.03
2022-11-09T05:03:41.088Z,100517.47
2022-11-09T05:06:27.073Z,100520.34
2022-11-09T05:08:54.510Z,100517.78
2022-11-09T05:11:22.232Z,100523.53
2022-11-09T05:13:49.077Z,100518.25
2022-11-09T05:16:17.579Z,100517.56
2022-11-09T05:18:44.530Z,100510.44
2022-11-09T05:21:11.658Z,100512.47
2022-11-09T05:23:57.272Z,100506.50
2022-11-09T05:26:30.603Z,100508.66
2022-11-09T05:28:59.320Z,100503.69
2022-11-09T05:31:27.256Z,100507.72
2022-11-09T05:33:54.302Z,100507.16
2022-11-09T05:36:22.180Z,100499.34
2022-11-09T05:38:49.074Z,100502.38
2022-11-09T05:41:16.288Z,100506.78
2022-11-09T05:43:44.683Z,100516.94
2022-11-09T05:46:15.430Z,100511.81
2022-11-09T05:48:42.916Z,100508.41
2022-11-09T05:51:11.989Z,100510.44
2022-11-09T05:53:42.386Z,100514.16
2022-11-09T05:56:13.373Z,100516.16
2022-11-09T05:58:41.301Z,100519.00
2022-11-09T06:01:10.432Z,100515.59
2022-11-09T06:03:37.641Z,100525.72
2022-11-09T06:06:08.587Z,100525.19
2022-11-09T06:08:35.864Z,100519.91
2022-11-09T06:11:05.400Z,100521.06
2022-11-09T06:13:32.638Z,100523.09
2022-11-09T06:16:04.272Z,100523.25
2022-11-09T06:18:33.102Z,100517.81
2022-11-09T06:21:01.855Z,100522.53
2022-11-09T06:23:29.392Z,100529.97
2022-11-09T06:26:01.675Z,100525.56
2022-11-09T06:28:28.737Z,100533.84
2022-11-09T06:31:03.737Z,100540.25
2022-11-09T06:33:32.000Z,100544.81
2022-11-09T06:36:00.091Z,100544.81
2022-11-09T06:38:26.990Z,100542.13
2022-11-09T06:40:55.234Z,100546.69
2022-11-09T06:43:23.078Z,100544.81
2022-11-09T06:45:50.251Z,100547.53
2022-11-09T06:48:16.810Z,100555.66
2022-11-09T06:50:43.594Z,100560.38
2022-11-09T06:53:12.742Z,100552.69
2022-11-09T06:55:49.105Z,100556.41
2022-11-09T06:58:18.265Z,100560.28
2022-11-09T07:00:45.541Z,100559.56
2022-11-09T07:03:16.824Z,100557.31
2022-11-09T07:05:45.539Z,100557.63
2022-11-09T07:08:12.736Z,100568.47
2022-11-09T07:10:39.642Z,100566.75
2022-11-09T07:13:07.218Z,100568.59
2022-11-09T07:15:35.354Z,100571.47
2022-11-09T07:18:04.351Z,100571.75
2022-11-09T07:20:31.256Z,100578.34
2022-11-09T07:22:58.150Z,100573.91
2022-11-09T07:25:27.126Z,100574.06
2022-11-09T07:27:53.773Z,100578.78
2022-11-09T07:30:20.253Z,100584.34
2022-11-09T07:33:07.899Z,100585.19
2022-11-09T07:35:34.677Z,100588.59
2022-11-09T07:38:02.078Z,100582.91
2022-11-09T07:40:29.236Z,100581.59
2022-11-09T07:43:04.717Z,100583.56
2022-11-09T07:45:36.111Z,100586.38
2022-11-09T07:48:05.711Z,100592.72
2022-11-09T07:50:33.414Z,100587.25
2022-11-09T07:53:01.897Z,100588.75
2022-11-09T07:55:33.441Z,100594.16
2022-11-09T07:58:02.820Z,100592.69
2022-11-09T08:00:31.428Z,100597.63
2022-11-09T08:02:58.081Z,100607.00
2022-11-09T08:05:24.960Z,100593.00
2022-11-09T08:07:59.410Z,100601.97
2022-11-09T08:10:27.391Z,100615.53
2022-11-09T08:12:55.591Z,100614.41
2022-11-09T08:15:24.411Z,100610.38
2022-11-09T08:17:51.188Z,100618.22
2022-11-09T08:20:18.198Z,100615.19
2022-11-09T08:22:46.231Z,100621.16
2022-11-09T08:25:17.588Z,100622.16
2022-11-09T08:27:44.069Z,100632.16
2022-11-09T08:30:14.301Z,100621.31
2022-11-09T08:32:42.342Z,100640.00
2022-11-09T08:35:12.482Z,100637.13
2022-11-09T08:37:39.779Z,100638.69
2022-11-09T08:40:07.300Z,100637.50
2022-11-09T08:42:33.960Z,100635.19
2022-11-09T08:45:02.084Z,100647.28
2022-11-09T08:47:29.059Z,100635.09
2022-11-09T08:49:55.846Z,100644.63
2022-11-09T08:52:22.403Z,100634.03
2022-11-09T08:54:49.025Z,100637.31
2022-11-09T08:57:18.922Z,100638.69
2022-11-09T08:59:46.168Z,100628.75
2022-11-09T09:02:13.436Z,100637.13
2022-11-09T09:04:44.432Z,100636.00
2022-11-09T09:07:11.053Z,100637.63
2022-11-09T09:09:40.176Z,100637.53
2022-11-09T09:12:08.292Z,100643.72
2022-11-09T09:14:39.140Z,100637.03
2022-11-09T09:17:05.835Z,100636.91
2022-11-09T09:19:32.359Z,100635.41
2022-11-09T09:21:59.391Z,100630.69
2022-11-09T09:24:30.516Z,100644.00
2022-11-09T09:26:57.030Z,100647.44
2022-11-09T09:29:23.714Z,100657.31
2022-11-09T09:31:50.262Z,100651.59
2022-11-09T09:34:18.471Z,100657.78
2022-11-09T09:36:48.322Z,100654.25
2022-11-09T09:39:15.638Z,100658.34
2022-11-09T09:42:04.858Z,100667.53
2022-11-09T09:44:46.391Z,100659.38
2022-11-09T09:47:22.157Z,100654.97
2022-11-09T09:50:13.634Z,100657.00
2022-11-09T09:53:04.747Z,100677.44
2022-11-09T09:55:42.889Z,100666.22
2022-11-09T09:58:16.413Z,100679.66
2022-11-09T10:00:43.910Z,100682.19
2022-11-09T10:03:20.229Z,100682.53
2022-11-09T10:05:58.668Z,100679.31
2022-11-09T10:08:47.116Z,100687.31
2022-11-09T10:11:47.812Z,100679.00
2022-11-09T10:14:17.806Z,100681.56
2022-11-09T10:17:09.409Z,100680.22
2022-11-09T10:19:50.315Z,100682.28
2022-11-09T10:22:26.277Z,100689.41
2022-11-09T10:28:12.821Z,100682.56
2022-11-09T10:30:40.460Z,100683.22
2022-11-09T10:33:09.898Z,100676.25
2022-11-09T10:35:53.591Z,100679.13
2022-11-09T10:38:29.292Z,100680.28
2022-11-09T10:41:39.778Z,100685.53
2022-11-09T10:44:26.250Z,100686.56
2022-11-09T10:47:14.555Z,100689.81
2022-11-09T10:50:08.052Z,100700.00
2022-11-09T10:52:53.181Z,100686.31
2022-11-09T10:55:49.272Z,100686.81
2022-11-09T10:58:40.696Z,100689.88
2022-11-09T11:01:36.751Z,100696.66
2022-11-09T11:04:26.701Z,100697.34
2022-11-09T11:07:21.284Z,100698.84
2022-11-09T11:10:15.606Z,100699.53
2022-11-09T11:13:00.398Z,100702.63
2022-11-09T11:15:52.894Z,100709.50
2022-11-09T11:18:37.962Z,100706.13
2022-11-09T11:21:24.307Z,100707.00
2022-11-09T11:24:21.354Z,100712.16
2022-11-09T11:27:16.408Z,100714.91
2022-11-09T11:30:15.839Z,100712.88
2022-11-09T11:33:00.873Z,100703.19
2022-11-09T11:35:53.489Z,100704.72
2022-11-09T11:38:53.282Z,100711.53
2022-11-09T11:42:05.613Z,100717.31
2022-11-09T11:45:41.006Z,100719.38
2022-11-09T11:48:49.633Z,100716.84
2022-11-09T11:52:23.461Z,100715.97
2022-11-09T11:55:26.557Z,100721.78
2022-11-09T11:58:55.121Z,100719.91
2022-11-09T12:02:31.689Z,100730.25
2022-11-09T12:05:16.871Z,100725.47
2022-11-09T12:08:40.215Z,100731.75
2022-11-09T12:11:54.858Z,100728.31
2022-11-09T12:15:01.880Z,100717.94
2022-11-09T12:18:34.613Z,100725.44
2022-11-09T12:21:41.503Z,100717.09
2022-11-09T12:24:46.671Z,100721.34
2022-11-09T12:27:56.475Z,100725.47
2022-11-09T12:30:54.844Z,100707.63
2022-11-09T12:34:01.786Z,100709.66
2022-11-09T12:37:02.593Z,100708.66
2022-11-09T12:39:52.654Z,100708.50
2022-11-09T12:42:53.918Z,100713.59
2022-11-09T12:45:44.222Z,100700.63
2022-11-09T12:48:32.192Z,100708.13
2022-11-09T12:51:18.347Z,100715.28
2022-11-09T12:57:15.854Z,100726.53
2022-11-09T13:00:01.109Z,100730.47
2022-11-09T13:02:58.515Z,100730.97
2022-11-09T13:05:45.736Z,100721.25
2022-11-09T13:08:32.004Z,100731.13
2022-11-09T13:11:21.755Z,100731.47
2022-11-09T13:14:22.219Z,100746.13
2022-11-09T13:17:26.070Z,100731.47
2022-11-09T13:20:56.950Z,100728.91
2022-11-09T13:26:48.501Z,100742.03
2022-11-09T13:29:39.820Z,100757.53
2022-11-09T13:32:27.669Z,100751.06
2022-11-09T13:35:42.047Z,100753.44
2022-11-09T13:38:30.646Z,100764.34
2022-11-09T13:41:34.153Z,100769.44
2022-11-09T13:44:26.270Z,100771.00
2022-11-09T13:47:27.931Z,100775.06
2022-11-09T13:50:22.621Z,100783.25
2022-11-09T13:53:27.911Z,100773.50
2022-11-09T13:56:24.766Z,100777.38
2022-11-09T13:59:39.073Z,100791.81
2022-11-09T14:02:26.237Z,100786.19
2022-11-09T14:05:44.240Z,100782.91
2022-11-09T14:08:37.530Z,100789.22
2022-11-09T14:12:10.241Z,100796.00
2022-11-09T14:15:32.582Z,100797.34
2022-11-09T14:18:32.734Z,100799.19
2022-11-09T14:21:24.621Z,100793.38
2022-11-09T14:24:22.109Z,100808.34
2022-11-09T14:27:10.267Z,100817.84
2022-11-09T14:29:59.361Z,100821.91
2022-11-09T14:32:49.721Z,100827.50
2022-11-09T14:35:39.220Z,100833.09
2022-11-09T14:38:31.039Z,100828.69
2022-11-09T14:41:31.160Z,100836.31
2022-11-09T14:44:40.211Z,100842.25
2022-11-09T14:47:31.842Z,100835.38
2022-11-09T14:50:26.601Z,100846.19
2022-11-09T14:53:18.972Z,100839.69
2022-11-09T14:56:12.234Z,100851.19
2022-11-09T14:58:58.297Z,100851.81
2022-11-09T15:02:02.733Z,100857.03
2022-11-09T15:05:01.981Z,100866.69
2022-11-09T15:07:50.706Z,100859.88
2022-11-09T15:10:36.371Z,100864.75
2022-11-09T15:13:37.518Z,100875.09
2022-11-09T15:16:26.394Z,100870.13
2022-11-09T15:19:29.349Z,100874.16
2022-11-09T15:22:48.803Z,100878.06
2022-11-09T15:25:56.048Z,100866.94
2022-11-09T15:28:46.648Z,100876.97
2022-11-09T15:31:31.474Z,100875.25
2022-11-09T15:34:24.644Z,100872.84
2022-11-09T15:37:29.669Z,100870.28
2022-11-09T15:40:19.818Z,100886.00
2022-11-09T15:43:05.321Z,100892.06
2022-11-09T15:45:50.809Z,100899.22
2022-11-09T15:48:35.781Z,100903.16
2022-11-09T15:51:20.967Z,100911.91
2022-11-09T15:54:06.227Z,100910.19
2022-11-09T15:57:03.064Z,100911.16
2022-11-09T15:59:48.498Z,100919.63
2022-11-09T16:02:33.764Z,100920.31
2022-11-09T16:05:25.478Z,100922.34
2022-11-09T16:08:10.721Z,100921.34
2022-11-09T16:10:55.882Z,100928.63
2022-11-09T16:13:40.835Z,100936.22
2022-11-09T16:16:27.728Z,100938.69
2022-11-09T16:19:14.221Z,100939.97
2022-11-09T16:22:02.070Z,100935.16
2022-11-09T16:24:48.294Z,100934.06
2022-11-09T16:27:49.672Z,100939.78
2022-11-09T16:30:35.580Z,100945.53
2022-11-09T16:33:20.695Z,100954.28
2022-11-09T16:36:13.533Z,100959.16
2022-11-09T16:39:04.081Z,100965.19
2022-11-09T16:41:51.498Z,100977.34
2022-11-09T16:44:44.954Z,100972.66
2022-11-09T16:47:30.398Z,100980.09
2022-11-09T16:50:15.918Z,100980.09
2022-11-09T16:53:01.048Z,100987.81
2022-11-09T16:55:51.982Z,100997.97
2022-11-09T16:58:37.706Z,100999.94
2022-11-09T17:01:23.685Z,101010.09
2022-11-09T17:04:09.258Z,101020.78
2022-11-09T17:06:54.818Z,101026.50
2022-11-09T17:09:40.021Z,101032.69
2022-11-09T17:12:25.010Z,101031.53
2022-11-09T17:15:10.682Z,101037.25
2022-11-09T17:17:56.090Z,101042.13
2022-11-09T17:20:46.478Z,101050.97
2022-11-09T17:23:31.504Z,101048.69
2022-11-09T17:26:17.867Z,101052.94
2022-11-09T17:29:03.852Z,101062.66
2022-11-09T17:31:48.848Z,101072.78
2022-11-09T17:34:40.015Z,101076.50
2022-11-09T17:37:25.284Z,101081.91
2022-11-09T17:40:10.643Z,101084.78
2022-11-09T17:42:56.978Z,101096.75
2022-11-09T17:45:46.584Z,101098.75
2022-11-09T17:48:33.427Z,101103.47
2022-11-09T17:51:19.984Z,101112.72
2022-11-09T17:54:05.256Z,101120.00
2022-11-09T17:56:52.075Z,101119.28
2022-11-09T17:59:39.685Z,101119.56
2022-11-09T18:02:25.357Z,101120.41
2022-11-09T18:05:11.278Z,101126.00
2022-11-09T18:07:56.210Z,101130.78
2022-11-09T18:10:43.882Z,101134.66
2022-11-09T18:13:29.071Z,101139.47
2022-11-09T18:16:17.856Z,101143.47
2022-11-09T18:19:04.806Z,101145.59
2022-11-09T18:21:49.788Z,101142.31
2022-11-09T18:24:39.336Z,101146.88
2022-11-09T18:27:29.072Z,101157.69
2022-11-09T18:30:16.593Z,101164.84
2022-11-09T18:33:01.752Z,101169.53
2022-11-09T18:36:01.766Z,101174.09
2022-11-09T18:38:47.239Z,101174.22
2022-11-09T18:41:33.002Z,101169.94
2022-11-09T18:44:18.305Z,101177.50
2022-11-09T18:47:05.675Z,101177.75
2022-11-09T18:49:51.192Z,101181.75
2022-11-09T18:52:36.850Z,101185.56
2022-11-09T18:55:22.073Z,101188.69
2022-11-09T18:58:07.173Z,101195.09
2022-11-09T19:00:59.944Z,101197.09
2022-11-09T19:03:45.357Z,101208.31
2022-11-09T19:06:30.724Z,101208.72
2022-11-09T19:09:34.472Z,101207.16
2022-11-09T19:12:19.573Z,101195.00
2022-11-09T19:15:07.754Z,101214.22
2022-11-09T19:17:53.860Z,101209.34
2022-11-09T19:20:39.200Z,101222.13
2022-11-09T19:23:28.385Z,101220.75
2022-11-09T19:26:17.745Z,101229.41
2022-11-09T19:29:02.916Z,101236.06
2022-11-09T19:31:48.570Z,101239.63
2022-11-09T19:34:34.550Z,101242.34
2022-11-09T19:37:19.381Z,101247.63
2022-11-09T19:40:05.374Z,101256.28
2022-11-09T19:42:50.233Z,101251.25
2022-11-09T19:45:40.178Z,101263.31
2022-11-09T19:48:25.560Z,101262.84
2022-11-09T19:51:10.838Z,101266.53
2022-11-09T19:53:57.362Z,101269.38
2022-11-09T19:56:42.763Z,101279.34
2022-11-09T19:59:27.893Z,101286.59
2022-11-09T20:02:12.993Z,101279.34
2022-11-09T20:05:03.100Z,101294.00
2022-11-09T20:07:48.115Z,101293.25
2022-11-09T20:10:37.181Z,101297.06
2022-11-09T20:13:22.873Z,101302.63
2022-11-09T20:16:10.368Z,101325.13
2022-11-09T20:18:55.612Z,101321.69
2022-11-09T20:21:41.514Z,101321.06
2022-11-09T20:24:27.685Z,101329.19
2022-11-09T20:27:12.780Z,101340.00
2022-11-09T20:29:57.648Z,101336.56
2022-11-09T20:32:42.720Z,101342.09
2022-11-09T20:35:27.776Z,101342.09
2022-11-09T20:38:12.912Z,101347.53
2022-11-09T20:41:00.895Z,101354.78
2022-11-09T20:43:46.756Z,101358.47
2022-11-09T20:46:36.183Z,101361.16
2022-11-09T20:49:22.305Z,101367.31
2022-11-09T20:52:07.255Z,101376.28
2022-11-09T20:54:55.334Z,101377.28
2022-11-09T20:57:40.535Z,101378.13
2022-11-09T21:00:25.655Z,101383.53
2022-11-09T21:03:10.863Z,101389.94
2022-11-09T21:05:59.447Z,101392.66
2022-11-09T21:08:52.586Z,101396.22
2022-11-09T21:12:00.854Z,101398.06
2022-11-09T21:14:47.590Z,101391.78
2022-11-09T21:17:32.790Z,101392.91
2022-11-09T21:20:18.175Z,101388.72
2022-11-09T21:23:23.495Z,101392.28
2022-11-09T21:26:27.649Z,101396.09
2022-11-09T21:29:35.206Z,101402.38
2022-11-09T21:32:22.073Z,101397.94
2022-11-09T21:35:08.630Z,101399.78
2022-11-09T21:37:56.562Z,101410.84
2022-11-09T21:40:41.634Z,101407.41
2022-11-09T21:43:26.996Z,101407.53
2022-11-09T21:46:12.212Z,101415.00
2022-11-09T21:48:57.758Z,101418.94
2022-11-09T21:51:42.934Z,101427.28
2022-11-09T21:54:31.587Z,101417.34
2022-11-09T21:57:16.949Z,101420.16
2022-11-09T22:00:01.705Z,101429.25
2022-11-09T22:02:46.618Z,101427.03
2022-11-09T22:05:33.610Z,101431.09
2022-11-09T22:08:18.721Z,101427.63
2022-11-09T22:11:45.218Z,101440.53
2022-11-09T22:14:52.185Z,101443.25
2022-11-09T22:17:37.226Z,101445.31
2022-11-09T22:20:42.172Z,101448.16
2022-11-09T22:23:27.299Z,101449.00
2022-11-09T22:26:12.752Z,101447.28
2022-11-09T22:28:58.745Z,101458.84
2022-11-09T22:31:43.937Z,101456.88
2022-11-09T22:34:30.714Z,101462.91
2022-11-09T22:37:16.106Z,101461.19
2022-11-09T22:40:01.145Z,101474.69
2022-11-09T22:42:45.994Z,101476.53
2022-11-09T22:45:33.631Z,101490.16
2022-11-09T22:48:18.936Z,101489.31
2022-11-09T22:51:05.108Z,101485.88
2022-11-09T22:53:51.153Z,101483.91
2022-11-09T22:56:36.515Z,101484.16
2022-11-09T22:59:21.465Z,101492.25
2022-11-09T23:02:06.523Z,101497.91
2022-11-09T23:04:51.406Z,101508.81
2022-11-09T23:07:36.678Z,101510.91
2022-11-09T23:10:21.953Z,101516.31
2022-11-09T23:13:07.446Z,101514.59
2022-11-09T23:15:57.181Z,101518.28
2022-11-09T23:18:54.889Z,101520.00
2022-11-09T23:21:40.147Z,101533.63
2022-11-09T23:24:44.133Z,101541.84
2022-11-09T23:27:29.441Z,101542.78
2022-11-09T23:30:14.764Z,101545.50
2022-11-09T23:33:01.385Z,101548.19
2022-11-09T23:35:48.542Z,101540.09
2022-11-09T23:38:36.292Z,101542.91
2022-11-09T23:41:21.735Z,101541.19
2022-11-09T23:44:06.730Z,101553.94
2022-11-09T23:46:52.467Z,101555.03
2022-11-09T23:49:37.232Z,101556.13
2022-11-09T23:52:22.232Z,101557.22
2022-11-09T23:55:07.579Z,101559.06
2022-11-09T23:57:53.011Z,101576.25
